Wetterdaten: aktuell Montag, 25.09.2017 14:45
Datum Zeit Temp. A. Feuchte A. Luftdruck Regen Wind Richtung Richtung Taupunkt Windchill Windben
25.09.2017 14:45 15,7 C 77 % 1020,0 hPa 0,0 l/m 0,0 km/h (0 Bft) S-SO 159 11,7 C 15,7 C 0,0 km/h (0 Bft)
25.09.2017 14:44 15,7 C 79 % 1020,1 hPa 0,0 l/m 3,4 km/h (1 Bft) S-SO 159 12,1 C 15,7 C 6,4 km/h (2 Bft)
25.09.2017 14:43 15,7 C 80 % 1020,1 hPa 0,0 l/m 7,2 km/h (2 Bft) S-SO 159 12,3 C 15,7 C 11,3 km/h (2 Bft)
25.09.2017 14:42 15,6 C 79 % 1020,1 hPa 0,0 l/m 8,6 km/h (2 Bft) S-SO 153 12,0 C 15,6 C 11,3 km/h (2 Bft)
25.09.2017 14:41 15,5 C 81 % 1020,1 hPa 0,0 l/m 5,0 km/h (1 Bft) S-SO 153 12,3 C 15,5 C 8,0 km/h (2 Bft)
25.09.2017 14:40 15,4 C 83 % 1020,0 hPa 0,0 l/m 1,9 km/h (1 Bft) S-SO 153 12,5 C 15,4 C 6,4 km/h (2 Bft)
25.09.2017 14:39 15,3 C 82 % 1020,1 hPa 0,0 l/m 4,0 km/h (1 Bft) S-SO 155 12,2 C 15,3 C 9,7 km/h (2 Bft)
25.09.2017 14:38 15,3 C 82 % 1020,1 hPa 0,0 l/m 9,7 km/h (2 Bft) S-SO 155 12,2 C 15,3 C 11,3 km/h (2 Bft)
25.09.2017 14:37 15,2 C 83 % 1020,0 hPa 0,0 l/m 6,2 km/h (2 Bft) S-SO 157 12,3 C 15,2 C 11,3 km/h (2 Bft)
25.09.2017 14:36 15,1 C 83 % 1020,1 hPa 0,0 l/m 7,7 km/h (2 Bft) S-SO 155 12,2 C 15,1 C 12,9 km/h (3 Bft)
25.09.2017 14:35 14,9 C 82 % 1020,0 hPa 0,0 l/m 5,3 km/h (1 Bft) S-SO 154 11,9 C 14,9 C 9,7 km/h (2 Bft)
25.09.2017 14:34 14,8 C 81 % 1020,0 hPa 0,0 l/m 0,8 km/h (0 Bft) S 182 11,6 C 14,8 C 1,6 km/h (1 Bft)
25.09.2017 14:33 14,9 C 81 % 1020,0 hPa 0,0 l/m 1,8 km/h (1 Bft) S 182 11,7 C 14,9 C 3,2 km/h (1 Bft)
25.09.2017 14:32 14,9 C 83 % 1020,1 hPa 0,0 l/m 7,4 km/h (2 Bft) S 181 12,0 C 14,9 C 9,7 km/h (2 Bft)
25.09.2017 14:31 14,9 C 82 % 1020,1 hPa 0,0 l/m 6,8 km/h (2 Bft) S 176 11,9 C 14,9 C 9,7 km/h (2 Bft)
25.09.2017 14:30 14,9 C 82 % 1020,1 hPa 0,0 l/m 4,8 km/h (1 Bft) S 179 11,9 C 14,9 C 6,4 km/h (2 Bft)
25.09.2017 14:29 14,9 C 82 % 1020,1 hPa 0,0 l/m 3,1 km/h (1 Bft) S 178 11,9 C 14,9 C 8,0 km/h (2 Bft)
25.09.2017 14:28 14,9 C 82 % 1020,1 hPa 0,0 l/m 8,5 km/h (2 Bft) SW 220 11,9 C 14,9 C 11,3 km/h (2 Bft)
25.09.2017 14:27 14,9 C 81 % 1020,1 hPa 0,0 l/m 7,9 km/h (2 Bft) S 169 11,7 C 14,9 C 11,3 km/h (2 Bft)
25.09.2017 14:26 14,9 C 82 % 1020,1 hPa 0,0 l/m 7,9 km/h (2 Bft) S-SO 168 11,9 C 14,9 C 11,3 km/h (2 Bft)
25.09.2017 14:25 15,0 C 82 % 1020,1 hPa 0,0 l/m 9,7 km/h (2 Bft) S 172 12,0 C 15,0 C 12,9 km/h (3 Bft)
25.09.2017 14:24 14,9 C 82 % 1020,1 hPa 0,0 l/m 10,7 km/h (2 Bft) S-SO 161 11,9 C 14,9 C 14,5 km/h (3 Bft)
25.09.2017 14:23 14,9 C 82 % 1020,1 hPa 0,0 l/m 4,9 km/h (1 Bft) SO 141 11,9 C 14,9 C 12,9 km/h (3 Bft)
25.09.2017 14:22 14,9 C 82 % 1020,1 hPa 0,0 l/m 3,0 km/h (1 Bft) SO 140 11,9 C 14,9 C 6,4 km/h (2 Bft)
25.09.2017 14:21 14,8 C 83 % 1020,1 hPa 0,0 l/m 8,5 km/h (2 Bft) SO 141 11,9 C 14,8 C 11,3 km/h (2 Bft)
25.09.2017 14:20 14,8 C 82 % 1020,1 hPa 0,0 l/m 11,7 km/h (2 Bft) SO 146 11,8 C 14,8 C 14,5 km/h (3 Bft)
25.09.2017 14:19 14,7 C 82 % 1020,1 hPa 0,0 l/m 2,6 km/h (1 Bft) SO 138 11,7 C 14,7 C 8,0 km/h (2 Bft)
25.09.2017 14:18 14,7 C 82 % 1020,1 hPa 0,0 l/m 3,5 km/h (1 Bft) SO 136 11,7 C 14,7 C 6,4 km/h (2 Bft)
25.09.2017 14:17 14,7 C 82 % 1020,2 hPa 0,0 l/m 6,1 km/h (2 Bft) SO 138 11,7 C 14,7 C 8,0 km/h (2 Bft)
25.09.2017 14:16 14,7 C 81 % 1020,2 hPa 0,0 l/m 2,5 km/h (1 Bft) SW 214 11,5 C 14,7 C 4,8 km/h (1 Bft)
25.09.2017 14:15 14,8 C 81 % 1020,2 hPa 0,0 l/m 5,8 km/h (2 Bft) SW 215 11,6 C 14,8 C 8,0 km/h (2 Bft)
25.09.2017 14:14 14,8 C 81 % 1020,2 hPa 0,0 l/m 1,9 km/h (1 Bft) S 188 11,6 C 14,8 C 6,4 km/h (2 Bft)
25.09.2017 14:13 14,9 C 80 % 1020,2 hPa 0,0 l/m 3,8 km/h (1 Bft) S-SO 149 11,5 C 14,9 C 9,7 km/h (2 Bft)
25.09.2017 14:12 14,9 C 81 % 1020,2 hPa 0,0 l/m 9,2 km/h (2 Bft) S-SO 149 11,7 C 14,9 C 12,9 km/h (3 Bft)
25.09.2017 14:11 14,9 C 81 % 1020,2 hPa 0,0 l/m 9,7 km/h (2 Bft) SO 144 11,7 C 14,9 C 12,9 km/h (3 Bft)
25.09.2017 14:10 15,0 C 80 % 1020,2 hPa 0,0 l/m 7,1 km/h (2 Bft) S-SO 149 11,6 C 15,0 C 9,7 km/h (2 Bft)
25.09.2017 14:09 15,1 C 80 % 1020,2 hPa 0,0 l/m 4,3 km/h (1 Bft) SO 144 11,7 C 15,1 C 8,0 km/h (2 Bft)
25.09.2017 14:08 15,2 C 80 % 1020,2 hPa 0,0 l/m 8,1 km/h (2 Bft) SO 142 11,8 C 15,2 C 12,9 km/h (3 Bft)
25.09.2017 14:07 15,3 C 80 % 1020,2 hPa 0,0 l/m 9,3 km/h (2 Bft) SO 139 11,9 C 15,3 C 12,9 km/h (3 Bft)
25.09.2017 14:06 15,3 C 80 % 1020,2 hPa 0,0 l/m 9,3 km/h (2 Bft) S-SO 154 11,9 C 15,3 C 12,9 km/h (3 Bft)
25.09.2017 14:05 15,4 C 81 % 1020,2 hPa 0,0 l/m 8,9 km/h (2 Bft) S-SO 161 12,2 C 15,4 C 11,3 km/h (2 Bft)
25.09.2017 14:04 15,5 C 82 % 1020,2 hPa 0,0 l/m 11,1 km/h (2 Bft) S-SO 151 12,4 C 15,5 C 12,9 km/h (3 Bft)
25.09.2017 14:03 15,4 C 82 % 1020,2 hPa 0,0 l/m 10,4 km/h (2 Bft) S-SO 155 12,3 C 15,4 C 12,9 km/h (3 Bft)
25.09.2017 14:02 15,4 C 81 % 1020,2 hPa 0,0 l/m 4,7 km/h (1 Bft) S-SO 165 12,2 C 15,4 C 12,9 km/h (3 Bft)
25.09.2017 14:01 15,4 C 81 % 1020,2 hPa 0,0 l/m 1,0 km/h (0 Bft) S-SO 147 12,2 C 15,4 C 3,2 km/h (1 Bft)
25.09.2017 14:00 15,3 C 82 % 1020,2 hPa 0,0 l/m 4,0 km/h (1 Bft) SO 146 12,2 C 15,3 C 6,4 km/h (2 Bft)
25.09.2017 13:59 15,3 C 81 % 1020,2 hPa 0,0 l/m 5,2 km/h (1 Bft) SO 146 12,1 C 15,3 C 9,7 km/h (2 Bft)
25.09.2017 13:58 15,2 C 82 % 1020,2 hPa 0,0 l/m 8,8 km/h (2 Bft) SO 146 12,1 C 15,2 C 12,9 km/h (3 Bft)
25.09.2017 13:57 15,2 C 79 % 1020,2 hPa 0,0 l/m 1,0 km/h (0 Bft) S-SO 152 11,6 C 15,2 C 3,2 km/h (1 Bft)
25.09.2017 13:56 15,3 C 80 % 1020,2 hPa 0,0 l/m 1,3 km/h (1 Bft) S-SO 152 11,9 C 15,3 C 6,4 km/h (2 Bft)
25.09.2017 13:55 15,4 C 81 % 1020,2 hPa 0,0 l/m 5,8 km/h (2 Bft) S-SO 152 12,2 C 15,4 C 9,7 km/h (2 Bft)
25.09.2017 13:54 15,5 C 82 % 1020,2 hPa 0,0 l/m 10,6 km/h (2 Bft) S-SO 151 12,4 C 15,5 C 12,9 km/h (3 Bft)
25.09.2017 13:53 15,4 C 81 % 1020,2 hPa 0,0 l/m 10,8 km/h (2 Bft) S-SO 152 12,2 C 15,4 C 14,5 km/h (3 Bft)
25.09.2017 13:52 15,4 C 83 % 1020,2 hPa 0,0 l/m 9,2 km/h (2 Bft) S-SO 157 12,5 C 15,4 C 12,9 km/h (3 Bft)
25.09.2017 13:51 15,3 C 83 % 1020,2 hPa 0,0 l/m 1,8 km/h (1 Bft) O 101 12,4 C 15,3 C 3,2 km/h (1 Bft)
25.09.2017 13:50 15,2 C 84 % 1020,2 hPa 0,0 l/m 5,7 km/h (2 Bft) O 96 12,5 C 15,2 C 9,7 km/h (2 Bft)
25.09.2017 13:49 15,0 C 84 % 1020,2 hPa 0,0 l/m 5,1 km/h (1 Bft) SO 131 12,3 C 15,0 C 8,0 km/h (2 Bft)
25.09.2017 13:48 14,9 C 85 % 1020,2 hPa 0,0 l/m 10,1 km/h (2 Bft) SO 128 12,4 C 14,9 C 14,5 km/h (3 Bft)
25.09.2017 13:47 14,6 C 84 % 1020,2 hPa 0,0 l/m 7,4 km/h (2 Bft) S-SO 153 11,9 C 14,6 C 11,3 km/h (2 Bft)
25.09.2017 13:46 14,4 C 82 % 1020,3 hPa 0,0 l/m 3,8 km/h (1 Bft) S 180 11,4 C 14,4 C 6,4 km/h (2 Bft)
25.09.2017 13:45 14,4 C 81 % 1020,3 hPa 0,0 l/m 2,9 km/h (1 Bft) S 180 11,2 C 14,4 C 6,4 km/h (2 Bft)
25.09.2017 13:44 14,5 C 83 % 1020,3 hPa 0,0 l/m 7,5 km/h (2 Bft) S 180 11,6 C 14,5 C 11,3 km/h (2 Bft)
25.09.2017 13:43 14,6 C 83 % 1020,3 hPa 0,0 l/m 10,1 km/h (2 Bft) S-SO 160 11,7 C 14,6 C 12,9 km/h (3 Bft)
25.09.2017 13:42 14,5 C 82 % 1020,3 hPa 0,0 l/m 8,1 km/h (2 Bft) S-SO 155 11,5 C 14,5 C 9,7 km/h (2 Bft)
25.09.2017 13:41 14,6 C 83 % 1020,3 hPa 0,0 l/m 8,3 km/h (2 Bft) S-SO 158 11,7 C 14,6 C 12,9 km/h (3 Bft)
25.09.2017 13:40 14,6 C 83 % 1020,3 hPa 0,0 l/m 8,8 km/h (2 Bft) S-SO 157 11,7 C 14,6 C 11,3 km/h (2 Bft)
25.09.2017 13:39 14,7 C 83 % 1020,3 hPa 0,0 l/m 10,3 km/h (2 Bft) S-SO 153 11,8 C 14,7 C 12,9 km/h (3 Bft)
25.09.2017 13:38 14,6 C 82 % 1020,3 hPa 0,0 l/m 7,6 km/h (2 Bft) SO 134 11,6 C 14,6 C 11,3 km/h (2 Bft)
25.09.2017 13:37 14,7 C 82 % 1020,3 hPa 0,0 l/m 7,1 km/h (2 Bft) S-SO 163 11,7 C 14,7 C 9,7 km/h (2 Bft)
25.09.2017 13:36 14,7 C 82 % 1020,3 hPa 0,0 l/m 6,6 km/h (2 Bft) S-SO 157 11,7 C 14,7 C 14,5 km/h (3 Bft)
25.09.2017 13:35 14,8 C 81 % 1020,3 hPa 0,0 l/m 0,1 km/h (0 Bft) S-SO 150 11,6 C 14,8 C 1,6 km/h (1 Bft)
25.09.2017 13:34 14,9 C 83 % 1020,3 hPa 0,0 l/m 4,4 km/h (1 Bft) S-SO 150 12,0 C 14,9 C 9,7 km/h (2 Bft)
25.09.2017 13:33 14,9 C 82 % 1020,4 hPa 0,0 l/m 8,5 km/h (2 Bft) S-SO 150 11,9 C 14,9 C 11,3 km/h (2 Bft)
25.09.2017 13:32 14,9 C 81 % 1020,3 hPa 0,0 l/m 2,9 km/h (1 Bft) S-SO 155 11,7 C 14,9 C 8,0 km/h (2 Bft)
25.09.2017 13:31 15,0 C 81 % 1020,3 hPa 0,0 l/m 6,5 km/h (2 Bft) S-SO 155 11,8 C 15,0 C 9,7 km/h (2 Bft)
25.09.2017 13:30 15,1 C 82 % 1020,3 hPa 0,0 l/m 7,6 km/h (2 Bft) S-SO 155 12,0 C 15,1 C 11,3 km/h (2 Bft)
25.09.2017 13:29 15,1 C 83 % 1020,3 hPa 0,0 l/m 10,8 km/h (2 Bft) S-SO 150 12,2 C 15,1 C 14,5 km/h (3 Bft)
25.09.2017 13:28 15,1 C 82 % 1020,3 hPa 0,0 l/m 6,2 km/h (2 Bft) S-SO 167 12,0 C 15,1 C 8,0 km/h (2 Bft)
25.09.2017 13:27 15,1 C 83 % 1020,3 hPa 0,0 l/m 7,9 km/h (2 Bft) S-SO 163 12,2 C 15,1 C 9,7 km/h (2 Bft)
25.09.2017 13:26 15,1 C 84 % 1020,2 hPa 0,0 l/m 7,5 km/h (2 Bft) S-SO 154 12,4 C 15,1 C 11,3 km/h (2 Bft)
25.09.2017 13:25 15,0 C 84 % 1020,3 hPa 0,0 l/m 1,5 km/h (1 Bft) S-SO 153 12,3 C 15,0 C 8,0 km/h (2 Bft)
25.09.2017 13:24 14,9 C 83 % 1020,3 hPa 0,0 l/m 1,0 km/h (0 Bft) S-SO 153 12,0 C 14,9 C 3,2 km/h (1 Bft)
25.09.2017 13:23 15,0 C 82 % 1020,3 hPa 0,0 l/m 6,5 km/h (2 Bft) S-SO 153 12,0 C 15,0 C 11,3 km/h (2 Bft)
25.09.2017 13:22 15,1 C 84 % 1020,3 hPa 0,0 l/m 11,2 km/h (2 Bft) S-SO 154 12,4 C 15,1 C 12,9 km/h (3 Bft)
25.09.2017 13:21 15,1 C 84 % 1020,3 hPa 0,0 l/m 13,2 km/h (3 Bft) S-SO 151 12,4 C 15,1 C 16,1 km/h (3 Bft)
25.09.2017 13:20 15,1 C 84 % 1020,3 hPa 0,0 l/m 14,0 km/h (3 Bft) S-SO 148 12,4 C 15,1 C 17,7 km/h (3 Bft)
25.09.2017 13:19 14,9 C 84 % 1020,3 hPa 0,0 l/m 10,6 km/h (2 Bft) S-SO 157 12,2 C 14,9 C 14,5 km/h (3 Bft)
25.09.2017 13:18 14,8 C 85 % 1020,3 hPa 0,0 l/m 7,9 km/h (2 Bft) S-SO 153 12,3 C 14,8 C 11,3 km/h (2 Bft)
25.09.2017 13:17 14,6 C 86 % 1020,3 hPa 0,0 l/m 10,7 km/h (2 Bft) SO 126 12,3 C 14,6 C 12,9 km/h (3 Bft)
25.09.2017 13:16 14,4 C 85 % 1020,3 hPa 0,0 l/m 5,6 km/h (2 Bft) SO 140 11,9 C 14,4 C 11,3 km/h (2 Bft)
25.09.2017 13:14 14,3 C 83 % 1020,3 hPa 0,0 l/m 6,2 km/h (2 Bft) SW 215 11,5 C 14,3 C 8,0 km/h (2 Bft)
25.09.2017 13:13 14,4 C 83 % 1020,3 hPa 0,0 l/m 7,6 km/h (2 Bft) S-SW 213 11,5 C 14,4 C 9,7 km/h (2 Bft)
25.09.2017 13:12 14,6 C 83 % 1020,3 hPa 0,0 l/m 4,8 km/h (1 Bft) S-SW 213 11,7 C 14,6 C 9,7 km/h (2 Bft)
25.09.2017 13:11 14,7 C 83 % 1020,3 hPa 0,0 l/m 4,7 km/h (1 Bft) S-SO 153 11,8 C 14,7 C 9,7 km/h (2 Bft)
25.09.2017 13:10 14,8 C 85 % 1020,3 hPa 0,0 l/m 9,7 km/h (2 Bft) S-SO 157 12,3 C 14,8 C 12,9 km/h (3 Bft)
25.09.2017 13:09 14,8 C 84 % 1020,3 hPa 0,0 l/m 10,8 km/h (2 Bft) S-SO 153 12,1 C 14,8 C 12,9 km/h (3 Bft)
25.09.2017 13:08 14,8 C 84 % 1020,3 hPa 0,0 l/m 7,3 km/h (2 Bft) S 175 12,1 C 14,8 C 9,7 km/h (2 Bft)
25.09.2017 13:07 14,8 C 84 % 1020,3 hPa 0,0 l/m 9,9 km/h (2 Bft) S-SO 155 12,1 C 14,8 C 14,5 km/h (3 Bft)
25.09.2017 13:06 14,8 C 83 % 1020,3 hPa 0,0 l/m 6,9 km/h (2 Bft) S-SO 165 11,9 C 14,8 C 11,3 km/h (2 Bft)
25.09.2017 13:05 14,9 C 85 % 1020,3 hPa 0,0 l/m 11,6 km/h (2 Bft) S-SO 166 12,4 C 14,9 C 16,1 km/h (3 Bft)
_ Min-Zeit 01:09 15:01 06:15 - 22:50 - - 01:09 05:14 22:50
Minimum _ 8,8 C 53 % 1019,7 hPa - 0,0 km/h (0 Bft) - - 7,1 C 7,7 C 0,0 km/h (0 Bft)
_ Max-Zeit 15:04 09:33 22:21 15:01 12:10 - - 13:52 15:04 12:37
Maximum _ 17,4 C 93 % 1021,4 hPa 0,0 l/m 14,5 km/h
S-SO (3 Bft)
- - 12,5 C 17,4 C 19,3 km/h
S-SO (3 Bft)
Durchschnitt _ 12,5 C 80 % 1020,6 hPa #0,0 l/m 4,7 km/h (1 Bft) W-NW - 8,9 C 12,4 C 7,1 km/h (2 Bft)
Wetterstation Eggerszell